Time;durP1;ratioP1;P1;durP2;ratioP2;P2;SDS_P1;SDS_P2;PMS_P1;PMS_P2;Temp;Humidity;BMP_temperature;BMP_pressure;BME280_temperature;BME280_humidity;BME280_pressure;Samples;Min_cycle;Max_cycle;Signal;HPM_P1;HPM_P2
2023/08/17 00:01:41;;;;;;;1.35;0.57;;;15.80;99.90;;;;;;4970318;28;20348;-75
2023/08/17 00:04:07;;;;;;;;;;;15.80;99.90;;;;;;4970894;28;20154;-75
2023/08/17 00:06:33;;;;;;;1.73;0.75;;;15.90;99.90;;;;;;4963792;28;20318;-75
2023/08/17 00:08:59;;;;;;;2.08;0.60;;;15.90;99.90;;;;;;4956120;28;20055;-75
2023/08/17 00:11:25;;;;;;;0.82;0.40;;;15.90;99.90;;;;;;4945760;28;20431;-75
2023/08/17 00:13:50;;;;;;;;;;;15.90;99.90;;;;;;4967052;28;20035;-75
2023/08/17 00:16:16;;;;;;;2.67;0.70;;;16.00;99.90;;;;;;4994128;28;20282;-75
2023/08/17 00:18:42;;;;;;;1.27;0.65;;;16.00;99.90;;;;;;4971742;28;20046;-75
2023/08/17 00:21:08;;;;;;;0.85;0.35;;;16.00;99.90;;;;;;4969395;28;20051;-75
2023/08/17 00:23:34;;;;;;;1.45;0.90;;;16.00;99.90;;;;;;4954605;28;20060;-75
2023/08/17 00:26:00;;;;;;;0.73;0.60;;;16.00;99.90;;;;;;4955845;28;20198;-75
2023/08/17 00:28:25;;;;;;;1.45;0.55;;;16.00;99.90;;;;;;4981474;28;20053;-75
2023/08/17 00:30:51;;;;;;;0.50;0.50;;;16.00;99.90;;;;;;4981699;28;20050;-76
2023/08/17 00:33:17;;;;;;;2.78;0.98;;;16.00;99.90;;;;;;4971263;28;20181;-75
2023/08/17 00:35:43;;;;;;;1.67;0.80;;;16.00;99.90;;;;;;4955511;28;20039;-75
2023/08/17 00:38:08;;;;;;;1.63;0.80;;;16.00;99.90;;;;;;4971028;28;20043;-75
2023/08/17 00:40:35;;;;;;;1.17;0.68;;;16.00;99.90;;;;;;4966129;28;20043;-75
2023/08/17 00:43:00;;;;;;;1.33;0.68;;;16.00;99.90;;;;;;4987565;28;20130;-75
2023/08/17 00:45:27;;;;;;;0.63;0.50;;;16.00;99.90;;;;;;4971478;28;20442;-75
2023/08/17 00:47:56;;;;;;;1.50;0.60;;;16.00;99.90;;;;;;4971307;28;20145;-75
2023/08/17 00:50:23;;;;;;;0.60;0.50;;;15.90;99.90;;;;;;4971021;28;20050;-75
2023/08/17 00:52:50;;;;;;;1.08;0.40;;;15.90;99.90;;;;;;4971527;28;20042;-75
2023/08/17 00:55:16;;;;;;;0.52;0.30;;;15.90;99.90;;;;;;4970092;28;20047;-75
2023/08/17 00:57:42;;;;;;;1.25;0.50;;;15.80;99.90;;;;;;4970898;28;20042;-75
2023/08/17 01:00:09;;;;;;;;;;;15.80;99.90;;;;;;5000892;28;20054;-75
2023/08/17 01:02:35;;;;;;;1.60;0.65;;;15.70;99.90;;;;;;4987650;28;19969;-75
2023/08/17 01:05:01;;;;;;;1.38;0.60;;;15.70;99.90;;;;;;4968835;28;20051;-76
2023/08/17 01:07:27;;;;;;;1.25;0.50;;;15.60;99.90;;;;;;4941663;28;20050;-75
2023/08/17 01:09:52;;;;;;;1.20;0.57;;;15.60;99.90;;;;;;4955413;28;20050;-75
2023/08/17 01:12:31;;;;;;;0.82;0.30;;;15.60;99.90;;;;;;4971097;28;20046;-75
2023/08/17 01:14:59;;;;;;;1.13;0.57;;;15.60;99.90;;;;;;4971234;28;20058;-75
2023/08/17 01:17:31;;;;;;;1.25;0.50;;;15.50;99.90;;;;;;4971485;28;20101;-75
2023/08/17 01:19:58;;;;;;;0.63;0.38;;;15.50;99.90;;;;;;4982653;28;20054;-75
2023/08/17 01:22:26;;;;;;;0.68;0.40;;;15.50;99.90;;;;;;4971170;28;20385;-75
2023/08/17 01:24:57;;;;;;;0.95;0.63;;;15.50;99.90;;;;;;4972381;28;20044;-75
2023/08/17 01:27:24;;;;;;;0.38;0.38;;;15.50;99.90;;;;;;4971291;28;20453;-75
2023/08/17 01:29:51;;;;;;;0.40;0.40;;;15.50;99.90;;;;;;4957086;28;20140;-75
2023/08/17 01:32:30;;;;;;;0.60;0.40;;;15.50;99.90;;;;;;4955450;28;20522;-75
2023/08/17 01:35:07;;;;;;;1.55;0.57;;;15.40;99.90;;;;;;4970875;28;20038;-75
2023/08/17 01:37:36;;;;;;;1.08;0.60;;;15.40;99.90;;;;;;4971089;28;20394;-75
2023/08/17 01:40:02;;;;;;;1.73;0.70;;;15.40;99.90;;;;;;4971063;28;20104;-75
2023/08/17 01:42:29;;;;;;;1.40;0.90;;;15.40;99.90;;;;;;4971306;28;20418;-75
2023/08/17 01:44:54;;;;;;;1.55;0.73;;;15.40;99.90;;;;;;4970730;28;20510;-75
2023/08/17 01:47:22;;;;;;;2.15;0.85;;;15.40;99.90;;;;;;4970904;28;20047;-75
2023/08/17 01:49:48;;;;;;;1.10;0.60;;;15.50;99.90;;;;;;4970706;28;20051;-75
2023/08/17 01:52:14;;;;;;;0.50;0.50;;;15.50;99.90;;;;;;4970897;28;20058;-75
2023/08/17 01:54:40;;;;;;;0.68;0.50;;;15.40;99.90;;;;;;4970618;28;20035;-75
2023/08/17 01:57:05;;;;;;;1.38;0.60;;;15.50;99.90;;;;;;4986922;28;20171;-75
2023/08/17 01:59:31;;;;;;;0.60;0.60;;;15.40;99.90;;;;;;4954519;28;20057;-75
2023/08/17 02:01:57;;;;;;;2.20;0.65;;;15.50;99.90;;;;;;4967884;28;20057;-75
2023/08/17 02:04:22;;;;;;;1.75;0.70;;;15.50;99.90;;;;;;4984606;28;20046;-75
2023/08/17 02:06:48;;;;;;;0.80;0.50;;;15.40;99.90;;;;;;4970149;28;20101;-75
2023/08/17 02:09:14;;;;;;;1.70;0.75;;;15.50;99.90;;;;;;4970252;28;20061;-75
2023/08/17 02:11:39;;;;;;;0.85;0.52;;;15.50;99.90;;;;;;4954447;28;20046;-75
2023/08/17 02:14:05;;;;;;;3.88;0.85;;;15.40;99.90;;;;;;4970160;28;20045;-75
2023/08/17 02:16:30;;;;;;;2.22;1.13;;;15.50;99.90;;;;;;4970325;28;20039;-75
2023/08/17 02:18:56;;;;;;;1.55;0.70;;;15.50;99.90;;;;;;4970090;28;20069;-75
2023/08/17 02:21:22;;;;;;;1.02;0.80;;;15.50;99.90;;;;;;4970396;28;20124;-75
2023/08/17 02:23:47;;;;;;;1.30;0.65;;;15.50;99.90;;;;;;4954149;28;20051;-75
2023/08/17 02:26:13;;;;;;;0.93;0.70;;;15.50;99.90;;;;;;4970196;28;20054;-76
2023/08/17 02:28:39;;;;;;;1.90;0.90;;;15.50;99.90;;;;;;4938213;28;20447;-76
2023/08/17 02:31:06;;;;;;;2.20;0.90;;;15.50;99.90;;;;;;4969876;28;20194;-75
2023/08/17 02:33:33;;;;;;;1.27;0.60;;;15.50;99.90;;;;;;4970192;28;20073;-75
2023/08/17 02:35:59;;;;;;;0.93;0.65;;;15.60;99.90;;;;;;4954424;28;20074;-75
2023/08/17 02:38:25;;;;;;;1.77;0.60;;;15.60;99.90;;;;;;4956526;28;20077;-75
2023/08/17 02:40:50;;;;;;;1.13;0.60;;;15.60;99.90;;;;;;4947089;29;20131;-75
2023/08/17 02:43:16;;;;;;;1.35;0.60;;;15.50;99.90;;;;;;4971222;28;20047;-75
2023/08/17 02:45:42;;;;;;;1.42;0.70;;;15.50;99.90;;;;;;4954825;29;20051;-75
2023/08/17 02:48:07;;;;;;;0.90;0.60;;;15.50;99.90;;;;;;4953008;28;20096;-76
2023/08/17 02:50:33;;;;;;;0.60;0.60;;;15.50;99.90;;;;;;4942019;28;20081;-76
2023/08/17 02:52:59;;;;;;;1.42;0.70;;;15.50;99.90;;;;;;4973801;28;20132;-76
2023/08/17 02:55:25;;;;;;;;;;;15.50;99.90;;;;;;4974271;28;20034;-75
2023/08/17 02:57:51;;;;;;;1.88;0.80;;;15.50;99.90;;;;;;4974042;28;19925;-75
2023/08/17 03:00:16;;;;;;;2.65;1.00;;;15.50;99.90;;;;;;4957871;28;20145;-75
2023/08/17 03:02:42;;;;;;;1.52;1.10;;;15.60;99.90;;;;;;4957477;28;20054;-75
2023/08/17 03:05:08;;;;;;;2.00;0.65;;;15.50;99.90;;;;;;4973983;28;20089;-75
2023/08/17 03:07:33;;;;;;;1.35;0.73;;;15.60;99.90;;;;;;4973763;28;20432;-75
2023/08/17 03:09:59;;;;;;;3.22;1.08;;;15.60;99.90;;;;;;4956747;28;20890;-75
2023/08/17 03:12:24;;;;;;;2.78;1.10;;;15.50;99.90;;;;;;4973571;28;20038;-75
2023/08/17 03:14:50;;;;;;;1.60;1.00;;;15.60;99.90;;;;;;4974857;28;20034;-75
2023/08/17 03:17:16;;;;;;;1.75;0.65;;;15.60;99.90;;;;;;4972813;28;20046;-75
2023/08/17 03:19:41;;;;;;;0.98;0.50;;;15.60;99.90;;;;;;4973306;28;20050;-75
2023/08/17 03:22:07;;;;;;;1.58;0.80;;;15.60;99.90;;;;;;4938735;28;20043;-76
2023/08/17 03:24:33;;;;;;;2.15;0.90;;;15.60;99.90;;;;;;4966879;28;20106;-76
2023/08/17 03:26:58;;;;;;;1.52;0.95;;;15.60;99.90;;;;;;4982263;28;20107;-76
2023/08/17 03:29:25;;;;;;;0.80;0.55;;;15.60;99.90;;;;;;4972952;28;20043;-76
2023/08/17 03:31:51;;;;;;;2.20;0.65;;;15.60;99.90;;;;;;4973310;28;20119;-76
2023/08/17 03:34:17;;;;;;;3.15;0.82;;;15.50;99.90;;;;;;4973208;28;20181;-76
2023/08/17 03:36:42;;;;;;;2.03;0.80;;;15.60;99.90;;;;;;4938780;29;20070;-76
2023/08/17 03:39:08;;;;;;;1.83;0.70;;;15.60;99.90;;;;;;4986086;28;20051;-76
2023/08/17 03:41:36;;;;;;;2.28;1.00;;;15.60;99.90;;;;;;4954003;28;20043;-76
2023/08/17 03:44:03;;;;;;;1.88;0.82;;;15.50;99.90;;;;;;4957119;28;20118;-76
2023/08/17 03:46:29;;;;;;;3.83;1.02;;;15.50;99.90;;;;;;4959408;28;20043;-76
2023/08/17 03:48:54;;;;;;;3.22;1.17;;;15.50;99.90;;;;;;4973128;28;20049;-76
2023/08/17 03:51:20;;;;;;;1.52;0.65;;;15.50;99.90;;;;;;4971923;28;20488;-76
2023/08/17 03:53:46;;;;;;;1.63;0.70;;;15.50;99.90;;;;;;4938187;29;20533;-76
2023/08/17 03:56:11;;;;;;;1.48;0.60;;;15.50;99.90;;;;;;4967630;28;20513;-76
2023/08/17 03:58:37;;;;;;;1.67;0.73;;;15.50;99.90;;;;;;4971165;28;20050;-76
2023/08/17 04:01:05;;;;;;;1.15;0.80;;;15.40;99.90;;;;;;4971292;28;20129;-76
2023/08/17 04:03:31;;;;;;;0.95;0.70;;;15.50;99.90;;;;;;4970466;28;20122;-76
2023/08/17 04:05:57;;;;;;;2.78;0.90;;;15.40;99.90;;;;;;4969257;28;20064;-76
2023/08/17 04:08:22;;;;;;;2.60;0.93;;;15.50;99.90;;;;;;4997693;28;20551;-76
2023/08/17 04:10:48;;;;;;;0.90;0.70;;;15.50;99.90;;;;;;4954033;28;20390;-76
2023/08/17 04:13:14;;;;;;;1.80;1.00;;;15.40;99.90;;;;;;4972484;28;20039;-76
2023/08/17 04:15:39;;;;;;;2.80;1.02;;;15.40;99.90;;;;;;4956277;28;20031;-76
2023/08/17 04:18:05;;;;;;;2.60;1.08;;;15.40;99.90;;;;;;4962635;28;20126;-76
2023/08/17 04:20:31;;;;;;;0.80;0.70;;;15.40;99.90;;;;;;4968651;28;20503;-76
2023/08/17 04:22:56;;;;;;;1.00;0.68;;;15.30;99.90;;;;;;4967629;28;20483;-76
2023/08/17 04:25:22;;;;;;;1.40;0.90;;;15.30;99.90;;;;;;4971907;28;20153;-76
2023/08/17 04:27:48;;;;;;;2.42;0.80;;;15.30;99.90;;;;;;4955957;28;20050;-75
2023/08/17 04:30:14;;;;;;;1.98;0.90;;;15.30;99.90;;;;;;4968320;28;20398;-76
2023/08/17 04:32:39;;;;;;;0.90;0.73;;;15.30;99.90;;;;;;4968036;28;20031;-76
2023/08/17 04:35:05;;;;;;;3.42;1.02;;;15.30;99.90;;;;;;4953400;28;20127;-75
2023/08/17 04:37:31;;;;;;;2.85;1.15;;;15.30;99.90;;;;;;4987085;28;20188;-75
2023/08/17 04:39:56;;;;;;;2.85;0.95;;;15.30;99.90;;;;;;4955039;28;20143;-75
2023/08/17 04:42:22;;;;;;;2.47;1.10;;;15.30;99.90;;;;;;4970977;28;20046;-75
2023/08/17 04:44:48;;;;;;;1.52;1.00;;;15.30;99.90;;;;;;4970658;28;20050;-75
2023/08/17 04:47:13;;;;;;;1.60;0.88;;;15.30;99.90;;;;;;4971785;28;20463;-75
2023/08/17 04:49:39;;;;;;;1.75;0.80;;;15.30;99.90;;;;;;4971723;28;20367;-75
2023/08/17 04:52:05;;;;;;;3.35;1.05;;;15.30;99.90;;;;;;4971793;28;20042;-75
2023/08/17 04:54:30;;;;;;;1.42;0.75;;;15.20;99.90;;;;;;4971577;28;20046;-75
2023/08/17 04:56:56;;;;;;;1.40;0.80;;;15.20;99.90;;;;;;4971641;28;20051;-75
2023/08/17 04:59:22;;;;;;;2.20;0.82;;;15.20;99.90;;;;;;4955510;28;20049;-75
2023/08/17 05:01:48;;;;;;;1.90;1.00;;;15.20;99.90;;;;;;4957305;28;20142;-75
2023/08/17 05:04:13;;;;;;;1.35;0.80;;;15.20;99.90;;;;;;4988193;28;20054;-75
2023/08/17 05:06:39;;;;;;;3.17;1.02;;;15.20;99.90;;;;;;4955503;28;20494;-74
2023/08/17 05:09:05;;;;;;;1.00;0.70;;;15.20;99.90;;;;;;4954902;28;20113;-75
2023/08/17 05:11:31;;;;;;;0.70;0.60;;;15.10;99.90;;;;;;4971498;28;20038;-75
2023/08/17 05:13:57;;;;;;;1.20;0.77;;;15.20;99.90;;;;;;4941643;28;20082;-75
2023/08/17 05:16:23;;;;;;;1.67;0.90;;;15.10;99.90;;;;;;4971316;28;20070;-75
2023/08/17 05:18:48;;;;;;;1.98;0.90;;;15.20;99.90;;;;;;4968887;28;20047;-75
2023/08/17 05:21:14;;;;;;;1.67;0.80;;;15.20;99.90;;;;;;4958323;28;20046;-75
2023/08/17 05:23:40;;;;;;;0.85;0.60;;;15.20;99.90;;;;;;4978291;28;20042;-75
2023/08/17 05:26:05;;;;;;;1.80;0.77;;;15.20;99.90;;;;;;4970871;28;20174;-75
2023/08/17 05:28:31;;;;;;;1.38;0.80;;;15.30;99.90;;;;;;4965202;28;20146;-75
2023/08/17 05:31:04;;;;;;;3.15;1.42;;;15.30;99.90;;;;;;4974780;28;20081;-74
2023/08/17 05:33:30;;;;;;;1.52;0.90;;;15.40;99.90;;;;;;4998891;28;20553;-76
2023/08/17 05:35:55;;;;;;;2.65;1.23;;;15.50;99.90;;;;;;4975077;28;20046;-75
2023/08/17 05:38:21;;;;;;;2.00;1.02;;;15.50;99.90;;;;;;4957708;28;20496;-75
2023/08/17 05:40:47;;;;;;;1.77;0.93;;;15.60;99.90;;;;;;4969728;28;20058;-75
2023/08/17 05:43:13;;;;;;;1.48;0.80;;;15.60;99.90;;;;;;5002697;28;21539;-76
2023/08/17 05:45:38;;;;;;;1.98;1.00;;;15.70;99.90;;;;;;4970364;28;20137;-80
2023/08/17 05:48:04;;;;;;;2.33;1.08;;;15.80;99.90;;;;;;4960981;28;20503;-78
2023/08/17 05:50:30;;;;;;;2.30;1.05;;;15.80;99.90;;;;;;4953575;28;20053;-76
2023/08/17 05:52:57;;;;;;;2.80;1.00;;;15.90;99.90;;;;;;4960354;28;20031;-84
2023/08/17 05:55:23;;;;;;;2.97;1.30;;;15.90;99.90;;;;;;4954692;28;20081;-75
2023/08/17 05:57:49;;;;;;;3.20;1.08;;;16.00;99.90;;;;;;4970109;28;20120;-75
2023/08/17 06:00:15;;;;;;;3.42;1.20;;;16.10;99.90;;;;;;4985840;28;20043;-75
2023/08/17 06:02:41;;;;;;;3.03;1.20;;;16.10;99.90;;;;;;4965399;28;20772;-75
2023/08/17 06:05:07;;;;;;;2.10;1.02;;;16.20;99.90;;;;;;4969396;28;20130;-75
2023/08/17 06:07:33;;;;;;;2.30;0.93;;;16.20;99.90;;;;;;4954274;28;20125;-75
2023/08/17 06:09:58;;;;;;;2.00;1.02;;;16.30;99.90;;;;;;4968861;28;20510;-76
2023/08/17 06:12:24;;;;;;;4.13;1.55;;;16.40;99.90;;;;;;4948887;28;20043;-75
2023/08/17 06:14:50;;;;;;;3.50;1.27;;;16.40;99.90;;;;;;4966649;28;20093;-75
2023/08/17 06:17:15;;;;;;;1.40;0.90;;;16.50;99.90;;;;;;4968033;28;20177;-76
2023/08/17 06:19:41;;;;;;;2.63;0.93;;;16.60;99.90;;;;;;4967164;28;20042;-77
2023/08/17 06:22:07;;;;;;;;;;;16.60;99.90;;;;;;4968265;28;20050;-76
2023/08/17 06:24:33;;;;;;;4.78;1.13;;;16.70;99.90;;;;;;4993527;28;19919;-76
2023/08/17 06:26:59;;;;;;;;;;;16.80;99.90;;;;;;4967438;28;20070;-76
2023/08/17 06:29:24;;;;;;;1.60;0.80;;;16.80;99.90;;;;;;4974659;28;19923;-76
2023/08/17 06:31:50;;;;;;;3.03;1.10;;;16.90;99.90;;;;;;4956536;28;20039;-76
2023/08/17 06:34:16;;;;;;;2.33;1.10;;;17.00;99.90;;;;;;4967864;28;20035;-76
2023/08/17 06:36:41;;;;;;;3.83;0.90;;;17.10;99.90;;;;;;4968881;28;20039;-75
2023/08/17 06:39:08;;;;;;;5.30;1.35;;;17.20;99.90;;;;;;4966634;28;20047;-76
2023/08/17 06:41:34;;;;;;;3.13;1.20;;;17.40;99.90;;;;;;4955944;28;20053;-76
2023/08/17 06:43:59;;;;;;;4.88;1.10;;;17.50;99.90;;;;;;4959700;28;20097;-85
2023/08/17 06:46:25;;;;;;;;;;;17.50;99.90;;;;;;4953778;28;20716;-84
2023/08/17 06:48:51;;;;;;;3.05;0.90;;;17.60;99.90;;;;;;4987249;28;19992;-87
2023/08/17 06:51:17;;;;;;;;;;;17.60;99.90;;;;;;4940000;28;20039;-87
2023/08/17 06:53:42;;;;;;;1.40;0.77;;;17.60;99.90;;;;;;4955586;28;19926;-85
2023/08/17 06:56:09;;;;;;;3.03;0.82;;;17.70;99.90;;;;;;4940016;28;20054;-88
2023/08/17 06:58:35;;;;;;;3.55;1.13;;;17.60;87.50;;;;;;4956152;28;20047;-88
2023/08/17 07:01:00;;;;;;;;;;;17.70;90.30;;;;;;4953730;28;20454;-83
2023/08/17 07:03:26;;;;;;;1.38;0.77;;;17.80;92.80;;;;;;4952136;28;19922;-84
2023/08/17 07:05:52;;;;;;;;;;;17.90;37.60;;;;;;4987273;28;20031;-83
2023/08/17 07:08:18;;;;;;;2.03;0.80;;;17.80;1.00;;;;;;4988184;28;20388;-83
2023/08/17 07:10:43;;;;;;;;;;;17.80;1.00;;;;;;4957189;28;20105;-85
2023/08/17 07:13:09;;;;;;;2.38;0.80;;;17.80;1.00;;;;;;4952630;28;20009;-84
2023/08/17 07:15:35;;;;;;;;;;;17.80;1.00;;;;;;4941016;28;20118;-85
2023/08/17 07:18:00;;;;;;;1.42;0.80;;;17.80;1.00;;;;;;4985828;28;19925;-84
2023/08/17 07:20:26;;;;;;;2.55;0.70;;;17.70;1.00;;;;;;4953484;28;20054;-85
2023/08/17 07:22:52;;;;;;;2.55;0.80;;;17.70;1.00;;;;;;4956124;28;20126;-89
2023/08/17 07:25:17;;;;;;;2.50;0.93;;;17.60;1.00;;;;;;4970044;28;20043;-87
2023/08/17 07:27:43;;;;;;;;;;;17.60;99.90;;;;;;4971990;28;20047;-87
2023/08/17 07:30:09;;;;;;;3.60;1.20;;;17.60;99.90;;;;;;4967067;28;20326;-87
2023/08/17 07:32:35;;;;;;;1.73;0.80;;;17.60;99.90;;;;;;4937902;28;20119;-87
2023/08/17 07:35:00;;;;;;;;;;;17.70;99.90;;;;;;4973495;28;20071;-87
2023/08/17 07:37:33;;;;;;;3.92;1.00;;;17.80;99.90;;;;;;4987506;28;19926;-87
2023/08/17 07:39:59;;;;;;;3.80;0.93;;;17.90;99.90;;;;;;4955374;28;20081;-87
2023/08/17 07:42:25;;;;;;;2.47;0.80;;;17.80;99.90;;;;;;4956401;28;20369;-82
2023/08/17 07:44:50;;;;;;;;;;;17.90;40.00;;;;;;4974362;28;20109;-76
2023/08/17 07:47:16;;;;;;;2.00;0.80;;;17.80;21.50;;;;;;4998065;28;19973;-76
2023/08/17 07:49:42;;;;;;;;;;;17.80;1.00;;;;;;4949861;28;20137;-77
2023/08/17 07:52:07;;;;;;;2.25;0.90;;;17.80;1.00;;;;;;4989535;28;19921;-77
2023/08/17 07:54:33;;;;;;;;;;;17.80;32.20;;;;;;4972438;28;20507;-77
2023/08/17 07:56:59;;;;;;;2.58;0.80;;;17.80;1.00;;;;;;5004980;28;19922;-76
2023/08/17 07:59:25;;;;;;;;;;;17.80;99.90;;;;;;4973245;28;20406;-76
2023/08/17 08:01:50;;;;;;;2.40;0.80;;;17.90;99.90;;;;;;5000077;28;20069;-77
2023/08/17 08:04:16;;;;;;;;;;;18.00;99.90;;;;;;4972888;28;20564;-77
2023/08/17 08:06:42;;;;;;;2.85;0.82;;;18.00;99.90;;;;;;4998158;28;19922;-77
2023/08/17 08:09:08;;;;;;;1.25;0.73;;;18.10;99.90;;;;;;4953199;28;20042;-77
2023/08/17 08:11:33;;;;;;;1.48;0.60;;;18.20;99.90;;;;;;4972281;28;20057;-77
2023/08/17 08:13:59;;;;;;;4.93;0.73;;;18.20;70.00;;;;;;4972314;28;20065;-77
2023/08/17 08:16:25;;;;;;;3.05;0.80;;;18.40;1.00;;;;;;4972279;28;20054;-77
2023/08/17 08:18:50;;;;;;;;;;;18.50;1.00;;;;;;4955867;28;20506;-77
2023/08/17 08:21:16;;;;;;;2.00;0.77;;;18.50;1.00;;;;;;5002838;28;19926;-77
2023/08/17 08:23:42;;;;;;;1.67;0.60;;;18.50;1.00;;;;;;4955923;28;20058;-77
2023/08/17 08:26:07;;;;;;;;;;;18.50;99.90;;;;;;4971831;28;20521;-77
2023/08/17 08:28:33;;;;;;;1.00;0.52;;;18.50;1.00;;;;;;4996534;28;19925;-77
2023/08/17 08:31:03;;;;;;;;;;;18.40;99.90;;;;;;4956425;28;20047;-77
2023/08/17 08:33:28;;;;;;;1.63;0.60;;;18.50;99.90;;;;;;4942386;28;19918;-77
2023/08/17 08:35:54;;;;;;;;;;;18.50;1.00;;;;;;4981466;28;20038;-77
2023/08/17 08:38:20;;;;;;;1.30;0.70;;;18.60;1.00;;;;;;4986005;28;19929;-77
2023/08/17 08:40:46;;;;;;;;;;;18.70;1.00;;;;;;4969947;28;20106;-77
2023/08/17 08:43:12;;;;;;;1.65;0.68;;;18.70;99.90;;;;;;5002629;28;19989;-77
2023/08/17 08:45:40;;;;;;;;;;;18.80;99.90;;;;;;4971939;28;20089;-77
2023/08/17 08:48:08;;;;;;;3.78;0.90;;;18.80;99.90;;;;;;5004460;28;19922;-77
2023/08/17 08:50:36;;;;;;;1.25;0.70;;;18.80;99.90;;;;;;4963170;28;20406;-77
2023/08/17 08:53:05;;;;;;;1.30;0.68;;;18.80;99.90;;;;;;4996733;28;20054;-77
2023/08/17 08:55:37;;;;;;;1.70;0.77;;;18.80;99.90;;;;;;4969419;28;21827;-76
2023/08/17 08:58:04;;;;;;;2.05;0.90;;;18.70;99.90;;;;;;4971286;28;21034;-77
2023/08/17 09:00:30;;;;;;;2.45;0.80;;;18.80;98.10;;;;;;4967949;28;20046;-76
2023/08/17 09:02:56;;;;;;;;;;;18.80;35.00;;;;;;4949138;28;20066;-77
2023/08/17 09:05:22;;;;;;;1.42;0.70;;;18.80;99.90;;;;;;5001342;28;19926;-77
2023/08/17 09:07:49;;;;;;;1.67;0.70;;;18.90;99.90;;;;;;4969313;28;20043;-77
2023/08/17 09:10:16;;;;;;;2.00;0.75;;;18.90;99.90;;;;;;4948116;28;20039;-77
2023/08/17 09:12:43;;;;;;;1.88;0.80;;;19.00;99.90;;;;;;4967398;28;20101;-77
2023/08/17 09:15:09;;;;;;;1.63;0.60;;;19.20;99.90;;;;;;4980337;28;20035;-77
2023/08/17 09:17:35;;;;;;;1.20;0.63;;;19.30;28.20;;;;;;4938771;28;20094;-77
2023/08/17 09:20:02;;;;;;;;;;;19.40;1.00;;;;;;4963153;28;20043;-78
2023/08/17 09:22:41;;;;;;;;;;;19.50;1.00;;;;;;5004238;28;20464;-77
2023/08/17 09:25:09;;;;;;;1.38;0.50;;;19.60;60.10;;;;;;4984605;28;19922;-78
2023/08/17 09:27:36;;;;;;;1.67;0.60;;;19.90;99.90;;;;;;4982051;28;20054;-77
2023/08/17 09:30:11;;;;;;;3.55;0.85;;;20.00;1.00;;;;;;4971648;28;20051;-77
2023/08/17 09:32:37;;;;;;;1.95;0.68;;;20.10;99.90;;;;;;4985580;28;20554;-76
2023/08/17 09:35:05;;;;;;;;;;;20.40;5.60;;;;;;4987009;28;20129;-77
2023/08/17 09:37:31;;;;;;;1.98;0.60;;;20.60;99.90;;;;;;4968605;28;19926;-77
2023/08/17 09:39:57;;;;;;;1.55;0.63;;;20.60;1.00;;;;;;4954266;28;20050;-77
2023/08/17 09:42:25;;;;;;;0.98;0.55;;;20.70;16.80;;;;;;4968997;28;20380;-77
2023/08/17 09:44:52;;;;;;;1.85;0.70;;;20.90;70.10;;;;;;4969058;28;20566;-77
2023/08/17 09:47:18;;;;;;;1.88;0.70;;;21.10;1.00;;;;;;4970711;28;20074;-77
2023/08/17 09:49:54;;;;;;;1.30;0.60;;;21.00;99.90;;;;;;4966063;28;20042;-77
2023/08/17 09:52:26;;;;;;;1.83;0.70;;;21.10;99.90;;;;;;4958357;28;20039;-77
2023/08/17 09:54:52;;;;;;;2.22;1.00;;;21.10;1.00;;;;;;4967316;28;20042;-77
2023/08/17 09:57:17;;;;;;;2.22;0.70;;;21.20;1.00;;;;;;4957239;28;20053;-78
2023/08/17 09:59:43;;;;;;;1.77;0.65;;;21.40;99.90;;;;;;4948820;28;20043;-80
2023/08/17 10:02:19;;;;;;;1.00;0.50;;;21.80;1.00;;;;;;4966689;28;20050;-78
2023/08/17 10:04:51;;;;;;;3.08;0.80;;;21.80;1.00;;;;;;4968376;28;20109;-78
2023/08/17 10:07:20;;;;;;;1.45;0.60;;;21.60;99.90;;;;;;4957913;28;20078;-78
2023/08/17 10:09:54;;;;;;;1.77;0.65;;;21.90;1.00;;;;;;4961959;28;20038;-77
2023/08/17 10:12:24;;;;;;;2.50;0.73;;;21.70;99.90;;;;;;4966664;28;20082;-78
2023/08/17 10:14:57;;;;;;;1.40;0.50;;;21.40;99.90;;;;;;4938000;29;20580;-77
2023/08/17 10:17:27;;;;;;;0.80;0.40;;;21.20;1.00;;;;;;4965767;28;20098;-78
2023/08/17 10:19:56;;;;;;;2.33;0.90;;;21.00;1.00;;;;;;4962678;28;20038;-77
2023/08/17 10:22:26;;;;;;;3.30;1.40;;;20.70;1.00;;;;;;4966092;28;20051;-78
2023/08/17 10:24:52;;;;;;;1.13;0.50;;;20.40;33.20;;;;;;4965671;28;20053;-77
2023/08/17 10:27:18;;;;;;;1.83;0.70;;;20.40;99.90;;;;;;4948144;28;20418;-78
2023/08/17 10:29:45;;;;;;;3.63;1.00;;;20.30;99.90;;;;;;4948552;28;20070;-77
2023/08/17 10:32:12;;;;;;;1.63;0.75;;;20.20;99.90;;;;;;4942040;28;20047;-77
2023/08/17 10:34:38;;;;;;;1.90;0.93;;;20.10;99.90;;;;;;4963133;28;20043;-77
2023/08/17 10:37:04;;;;;;;2.50;0.80;;;20.20;99.90;;;;;;4968157;28;20058;-78
2023/08/17 10:39:30;;;;;;;2.15;0.80;;;20.30;99.90;;;;;;4998839;28;20053;-78
2023/08/17 10:41:58;;;;;;;3.35;1.00;;;20.30;99.90;;;;;;4949885;28;20054;-78
2023/08/17 10:44:45;;;;;;;1.27;0.70;;;20.40;99.90;;;;;;4947739;28;20038;-78
2023/08/17 10:47:21;;;;;;;1.95;0.70;;;20.60;99.90;;;;;;4967445;28;20473;-77
2023/08/17 10:50:21;;;;;;;2.25;0.68;;;20.80;99.90;;;;;;4966570;28;20406;-78
2023/08/17 10:52:48;;;;;;;2.60;0.85;;;21.00;99.90;;;;;;4970239;28;20047;-78
2023/08/17 10:55:14;;;;;;;2.40;0.90;;;21.10;99.90;;;;;;4969279;28;20043;-78
2023/08/17 10:57:44;;;;;;;2.50;0.75;;;20.90;90.00;;;;;;4954001;28;20050;-77
2023/08/17 11:00:26;;;;;;;1.38;0.65;;;21.00;99.90;;;;;;4967017;28;20051;-77
2023/08/17 11:02:59;;;;;;;3.08;0.77;;;21.10;99.90;;;;;;4969948;28;20525;-77
2023/08/17 11:05:49;;;;;;;2.15;0.80;;;21.60;99.90;;;;;;4954575;28;20494;-77
2023/08/17 11:08:27;;;;;;;2.20;0.80;;;22.10;84.20;;;;;;4973739;28;20079;-77
2023/08/17 11:11:03;;;;;;;1.67;0.77;;;22.60;12.00;;;;;;5004096;28;20384;-77
2023/08/17 11:13:31;;;;;;;2.97;0.90;;;22.90;99.90;;;;;;4969373;28;20046;-77
2023/08/17 11:15:59;;;;;;;1.83;0.60;;;22.90;99.90;;;;;;4972658;28;20039;-77
2023/08/17 11:18:24;;;;;;;2.75;1.38;;;22.70;99.90;;;;;;4972631;28;20137;-77
2023/08/17 11:20:51;;;;;;;2.03;0.70;;;22.60;99.90;;;;;;4946408;28;20117;-77
2023/08/17 11:23:18;;;;;;;3.15;0.90;;;22.50;99.90;;;;;;4968522;28;20050;-77
2023/08/17 11:25:44;;;;;;;1.45;0.70;;;22.60;99.90;;;;;;4970442;28;20042;-76
2023/08/17 11:28:09;;;;;;;1.88;0.90;;;22.60;1.00;;;;;;4968374;28;20502;-77
2023/08/17 11:30:38;;;;;;;1.67;0.60;;;22.70;1.00;;;;;;4972107;28;20050;-76
2023/08/17 11:33:05;;;;;;;2.60;0.88;;;22.80;1.00;;;;;;4970163;28;20050;-76
2023/08/17 11:35:31;;;;;;;2.70;0.90;;;22.90;1.00;;;;;;4970972;28;20591;-77
2023/08/17 11:37:57;;;;;;;1.60;0.68;;;22.80;99.90;;;;;;4969791;28;20051;-77
2023/08/17 11:40:27;;;;;;;1.58;0.90;;;23.20;99.90;;;;;;4973419;28;20051;-77
2023/08/17 11:42:53;;;;;;;1.42;0.80;;;23.20;1.00;;;;;;4971040;28;20085;-78
2023/08/17 11:45:19;;;;;;;1.27;0.60;;;23.10;99.90;;;;;;4983745;28;20078;-78
2023/08/17 11:47:46;;;;;;;1.38;0.70;;;23.10;99.90;;;;;;4953782;28;20054;-79
2023/08/17 11:50:14;;;;;;;1.13;0.80;;;22.90;99.90;;;;;;4957562;28;20093;-78
2023/08/17 11:52:40;;;;;;;1.90;0.80;;;22.80;99.90;;;;;;4970501;28;20569;-78
2023/08/17 11:55:08;;;;;;;1.15;0.68;;;22.60;99.90;;;;;;4967995;28;20054;-78
2023/08/17 11:57:34;;;;;;;1.42;0.77;;;22.50;99.90;;;;;;4955399;28;20046;-78
2023/08/17 12:00:01;;;;;;;2.28;0.60;;;22.30;1.00;;;;;;4966500;28;20049;-79
2023/08/17 12:02:27;;;;;;;1.45;0.60;;;22.30;1.00;;;;;;4951702;28;20126;-79
2023/08/17 12:04:57;;;;;;;1.27;0.60;;;22.10;37.50;;;;;;4999464;28;20082;-79
2023/08/17 12:07:24;;;;;;;1.58;0.73;;;22.00;87.80;;;;;;4983383;28;20123;-79
2023/08/17 12:09:53;;;;;;;1.88;0.70;;;22.10;99.90;;;;;;4982791;28;20047;-79
2023/08/17 12:12:22;;;;;;;1.20;0.68;;;22.00;85.80;;;;;;4951283;28;20486;-79
2023/08/17 12:14:48;;;;;;;1.40;0.60;;;22.00;99.90;;;;;;4971216;28;20047;-80
2023/08/17 12:17:18;;;;;;;3.17;0.90;;;21.90;99.90;;;;;;4938085;28;20043;-79
2023/08/17 12:19:44;;;;;;;1.80;0.70;;;21.70;99.90;;;;;;4970952;28;20053;-78
2023/08/17 12:22:12;;;;;;;1.27;0.80;;;21.70;99.90;;;;;;4952786;28;20545;-78
2023/08/17 12:24:38;;;;;;;3.00;1.10;;;21.60;99.90;;;;;;4958292;28;20043;-78
2023/08/17 12:27:05;;;;;;;4.00;1.00;;;21.40;99.90;;;;;;4953962;28;20062;-77
2023/08/17 12:29:31;;;;;;;1.70;0.70;;;21.40;99.90;;;;;;4967312;28;20069;-77
2023/08/17 12:32:01;;;;;;;2.15;0.90;;;21.40;1.00;;;;;;4991380;28;20038;-76
2023/08/17 12:34:26;;;;;;;2.63;1.10;;;21.40;1.00;;;;;;4970374;28;20043;-81
2023/08/17 12:36:52;;;;;;;1.42;0.70;;;21.30;99.90;;;;;;4970924;28;20089;-77
2023/08/17 12:39:18;;;;;;;2.22;0.85;;;21.30;1.00;;;;;;4967900;28;20066;-77
2023/08/17 12:41:44;;;;;;;1.73;0.80;;;21.40;1.00;;;;;;4961475;28;20090;-77
2023/08/17 12:44:13;;;;;;;1.48;0.73;;;21.30;1.00;;;;;;4971170;28;20454;-77
2023/08/17 12:46:39;;;;;;;1.10;0.57;;;21.20;8.70;;;;;;4969431;28;20562;-83
2023/08/17 12:49:05;;;;;;;2.45;0.90;;;21.20;1.00;;;;;;4969625;28;20113;-78
2023/08/17 12:51:30;;;;;;;2.75;1.02;;;21.00;44.80;;;;;;4939304;28;20130;-79
2023/08/17 12:53:56;;;;;;;1.85;0.90;;;20.90;85.00;;;;;;4966936;28;20107;-79